sensor_id;sensor_type;location;lat;lon;timestamp;temperature;humidity
52211;DHT22;38179;52.756;6.906;2023-02-13T00:01:21;6.40;99.90
52211;DHT22;38179;52.756;6.906;2023-02-13T00:03:47;6.40;99.90
52211;DHT22;38179;52.756;6.906;2023-02-13T00:06:13;6.40;99.90
52211;DHT22;38179;52.756;6.906;2023-02-13T00:08:39;6.40;99.90
52211;DHT22;38179;52.756;6.906;2023-02-13T00:11:05;6.40;99.90
52211;DHT22;38179;52.756;6.906;2023-02-13T00:13:33;6.40;99.90
52211;DHT22;38179;52.756;6.906;2023-02-13T00:16:02;6.40;99.90
52211;DHT22;38179;52.756;6.906;2023-02-13T00:18:29;6.30;99.90
52211;DHT22;38179;52.756;6.906;2023-02-13T00:21:09;6.30;99.90
52211;DHT22;38179;52.756;6.906;2023-02-13T00:23:36;6.30;99.90
52211;DHT22;38179;52.756;6.906;2023-02-13T00:26:13;6.30;99.90
52211;DHT22;38179;52.756;6.906;2023-02-13T00:28:39;6.30;99.90
52211;DHT22;38179;52.756;6.906;2023-02-13T00:31:15;6.40;99.90
52211;DHT22;38179;52.756;6.906;2023-02-13T00:33:42;6.30;99.90
52211;DHT22;38179;52.756;6.906;2023-02-13T00:36:26;6.30;99.90
52211;DHT22;38179;52.756;6.906;2023-02-13T00:38:53;6.30;99.90
52211;DHT22;38179;52.756;6.906;2023-02-13T00:41:19;6.40;99.90
52211;DHT22;38179;52.756;6.906;2023-02-13T00:43:45;6.30;99.90
52211;DHT22;38179;52.756;6.906;2023-02-13T00:46:12;6.40;99.90
52211;DHT22;38179;52.756;6.906;2023-02-13T00:48:38;6.30;99.90
52211;DHT22;38179;52.756;6.906;2023-02-13T00:51:05;6.30;99.90
52211;DHT22;38179;52.756;6.906;2023-02-13T00:53:32;6.30;99.90
52211;DHT22;38179;52.756;6.906;2023-02-13T00:55:58;6.30;99.90
52211;DHT22;38179;52.756;6.906;2023-02-13T00:58:24;6.30;99.90
52211;DHT22;38179;52.756;6.906;2023-02-13T01:00:52;6.30;99.90
52211;DHT22;38179;52.756;6.906;2023-02-13T01:03:19;6.30;99.90
52211;DHT22;38179;52.756;6.906;2023-02-13T01:05:46;6.30;99.90
52211;DHT22;38179;52.756;6.906;2023-02-13T01:08:13;6.30;99.90
52211;DHT22;38179;52.756;6.906;2023-02-13T01:10:40;6.30;99.90
52211;DHT22;38179;52.756;6.906;2023-02-13T01:13:07;6.30;99.90
52211;DHT22;38179;52.756;6.906;2023-02-13T01:15:33;6.30;99.90
52211;DHT22;38179;52.756;6.906;2023-02-13T01:17:59;6.30;99.90
52211;DHT22;38179;52.756;6.906;2023-02-13T01:20:27;6.30;99.90
52211;DHT22;38179;52.756;6.906;2023-02-13T01:22:53;6.30;99.90
52211;DHT22;38179;52.756;6.906;2023-02-13T01:25:20;6.30;99.90
52211;DHT22;38179;52.756;6.906;2023-02-13T01:27:46;6.30;99.90
52211;DHT22;38179;52.756;6.906;2023-02-13T01:30:14;6.40;99.90
52211;DHT22;38179;52.756;6.906;2023-02-13T01:32:42;6.30;99.90
52211;DHT22;38179;52.756;6.906;2023-02-13T01:35:10;6.40;99.90
52211;DHT22;38179;52.756;6.906;2023-02-13T01:37:37;6.30;99.90
52211;DHT22;38179;52.756;6.906;2023-02-13T01:40:05;6.30;99.90
52211;DHT22;38179;52.756;6.906;2023-02-13T01:42:33;6.30;99.90
52211;DHT22;38179;52.756;6.906;2023-02-13T01:45:05;6.30;99.90
52211;DHT22;38179;52.756;6.906;2023-02-13T01:47:59;6.30;99.90
52211;DHT22;38179;52.756;6.906;2023-02-13T01:50:34;6.30;99.90
52211;DHT22;38179;52.756;6.906;2023-02-13T01:53:13;6.30;99.90
52211;DHT22;38179;52.756;6.906;2023-02-13T01:56:16;6.30;99.90
52211;DHT22;38179;52.756;6.906;2023-02-13T01:58:41;6.30;99.90
52211;DHT22;38179;52.756;6.906;2023-02-13T02:01:09;6.20;99.90
52211;DHT22;38179;52.756;6.906;2023-02-13T02:03:42;6.20;99.90
52211;DHT22;38179;52.756;6.906;2023-02-13T02:06:16;6.20;99.90
52211;DHT22;38179;52.756;6.906;2023-02-13T02:08:43;6.30;99.90
52211;DHT22;38179;52.756;6.906;2023-02-13T02:11:19;6.20;99.90
52211;DHT22;38179;52.756;6.906;2023-02-13T02:13:47;6.20;99.90
52211;DHT22;38179;52.756;6.906;2023-02-13T02:16:14;6.20;99.90
52211;DHT22;38179;52.756;6.906;2023-02-13T02:18:40;6.20;99.90
52211;DHT22;38179;52.756;6.906;2023-02-13T02:32:41;6.20;99.90
52211;DHT22;38179;52.756;6.906;2023-02-13T02:36:03;6.20;99.90
52211;DHT22;38179;52.756;6.906;2023-02-13T02:38:23;6.20;99.90
52211;DHT22;38179;52.756;6.906;2023-02-13T02:43:56;6.20;99.90
52211;DHT22;38179;52.756;6.906;2023-02-13T02:49:52;6.20;99.90
52211;DHT22;38179;52.756;6.906;2023-02-13T02:53:27;6.20;99.90
52211;DHT22;38179;52.756;6.906;2023-02-13T02:55:53;6.20;99.90
52211;DHT22;38179;52.756;6.906;2023-02-13T02:58:30;6.20;99.90
52211;DHT22;38179;52.756;6.906;2023-02-13T03:01:21;6.20;99.90
52211;DHT22;38179;52.756;6.906;2023-02-13T03:04:14;6.10;99.90
52211;DHT22;38179;52.756;6.906;2023-02-13T03:07:04;6.10;99.90
52211;DHT22;38179;52.756;6.906;2023-02-13T03:09:39;6.10;99.90
52211;DHT22;38179;52.756;6.906;2023-02-13T03:12:29;6.10;99.90
52211;DHT22;38179;52.756;6.906;2023-02-13T03:15:17;6.10;99.90
52211;DHT22;38179;52.756;6.906;2023-02-13T03:17:42;6.10;99.90
52211;DHT22;38179;52.756;6.906;2023-02-13T03:20:33;6.10;99.90
52211;DHT22;38179;52.756;6.906;2023-02-13T03:23:28;6.10;99.90
52211;DHT22;38179;52.756;6.906;2023-02-13T03:26:29;6.10;99.90
52211;DHT22;38179;52.756;6.906;2023-02-13T03:29:13;6.20;99.90
52211;DHT22;38179;52.756;6.906;2023-02-13T03:34:37;6.20;99.90
52211;DHT22;38179;52.756;6.906;2023-02-13T03:37:29;6.10;99.90
52211;DHT22;38179;52.756;6.906;2023-02-13T03:40:27;6.10;99.90
52211;DHT22;38179;52.756;6.906;2023-02-13T03:43:12;6.10;99.90
52211;DHT22;38179;52.756;6.906;2023-02-13T03:45:43;6.10;99.90
52211;DHT22;38179;52.756;6.906;2023-02-13T03:48:31;6.10;99.90
52211;DHT22;38179;52.756;6.906;2023-02-13T03:51:26;6.10;99.90
52211;DHT22;38179;52.756;6.906;2023-02-13T03:54:02;6.10;99.90
52211;DHT22;38179;52.756;6.906;2023-02-13T03:56:31;6.10;99.90
52211;DHT22;38179;52.756;6.906;2023-02-13T03:59:24;6.10;99.90
52211;DHT22;38179;52.756;6.906;2023-02-13T04:02:08;6.10;99.90
52211;DHT22;38179;52.756;6.906;2023-02-13T04:04:41;6.10;99.90
52211;DHT22;38179;52.756;6.906;2023-02-13T04:07:11;6.10;99.90
52211;DHT22;38179;52.756;6.906;2023-02-13T04:09:59;6.10;99.90
52211;DHT22;38179;52.756;6.906;2023-02-13T04:12:37;6.10;99.90
52211;DHT22;38179;52.756;6.906;2023-02-13T04:15:37;6.10;99.90
52211;DHT22;38179;52.756;6.906;2023-02-13T04:18:15;6.10;99.90
52211;DHT22;38179;52.756;6.906;2023-02-13T04:20:43;6.10;99.90
52211;DHT22;38179;52.756;6.906;2023-02-13T04:23:10;6.10;99.90
52211;DHT22;38179;52.756;6.906;2023-02-13T04:25:38;6.10;99.90
52211;DHT22;38179;52.756;6.906;2023-02-13T04:28:05;6.10;99.90
52211;DHT22;38179;52.756;6.906;2023-02-13T04:30:31;6.10;99.90
52211;DHT22;38179;52.756;6.906;2023-02-13T04:33:00;6.10;99.90
52211;DHT22;38179;52.756;6.906;2023-02-13T04:35:26;6.10;99.90
52211;DHT22;38179;52.756;6.906;2023-02-13T04:37:53;6.10;99.90
52211;DHT22;38179;52.756;6.906;2023-02-13T04:40:19;6.10;99.90
52211;DHT22;38179;52.756;6.906;2023-02-13T04:42:47;6.10;99.90
52211;DHT22;38179;52.756;6.906;2023-02-13T04:45:14;6.10;99.90
52211;DHT22;38179;52.756;6.906;2023-02-13T04:47:41;6.10;99.90
52211;DHT22;38179;52.756;6.906;2023-02-13T04:50:07;6.10;99.90
52211;DHT22;38179;52.756;6.906;2023-02-13T04:52:33;6.10;99.90
52211;DHT22;38179;52.756;6.906;2023-02-13T04:54:59;6.00;99.90
52211;DHT22;38179;52.756;6.906;2023-02-13T04:57:26;6.00;99.90
52211;DHT22;38179;52.756;6.906;2023-02-13T04:59:52;6.10;99.90
52211;DHT22;38179;52.756;6.906;2023-02-13T05:02:18;6.00;99.90
52211;DHT22;38179;52.756;6.906;2023-02-13T05:04:44;6.00;99.90
52211;DHT22;38179;52.756;6.906;2023-02-13T05:07:10;6.00;99.90
52211;DHT22;38179;52.756;6.906;2023-02-13T05:09:36;6.00;99.90
52211;DHT22;38179;52.756;6.906;2023-02-13T05:12:02;6.00;99.90
52211;DHT22;38179;52.756;6.906;2023-02-13T05:14:28;6.10;99.90
52211;DHT22;38179;52.756;6.906;2023-02-13T05:16:54;6.00;99.90
52211;DHT22;38179;52.756;6.906;2023-02-13T05:19:20;6.00;99.90
52211;DHT22;38179;52.756;6.906;2023-02-13T05:21:46;6.00;99.90
52211;DHT22;38179;52.756;6.906;2023-02-13T05:24:30;6.00;99.90
52211;DHT22;38179;52.756;6.906;2023-02-13T05:26:56;6.00;99.90
52211;DHT22;38179;52.756;6.906;2023-02-13T05:29:22;6.00;99.90
52211;DHT22;38179;52.756;6.906;2023-02-13T05:31:53;6.00;99.90
52211;DHT22;38179;52.756;6.906;2023-02-13T05:34:20;6.00;99.90
52211;DHT22;38179;52.756;6.906;2023-02-13T05:36:48;6.00;99.90
52211;DHT22;38179;52.756;6.906;2023-02-13T05:39:14;6.00;99.90
52211;DHT22;38179;52.756;6.906;2023-02-13T05:41:45;6.00;99.90
52211;DHT22;38179;52.756;6.906;2023-02-13T05:44:12;6.00;99.90
52211;DHT22;38179;52.756;6.906;2023-02-13T05:46:39;6.00;99.90
52211;DHT22;38179;52.756;6.906;2023-02-13T05:49:07;6.00;99.90
52211;DHT22;38179;52.756;6.906;2023-02-13T05:51:34;6.00;99.90
52211;DHT22;38179;52.756;6.906;2023-02-13T05:54:00;6.00;99.90
52211;DHT22;38179;52.756;6.906;2023-02-13T05:56:26;6.00;99.90
52211;DHT22;38179;52.756;6.906;2023-02-13T05:58:53;6.00;99.90
52211;DHT22;38179;52.756;6.906;2023-02-13T06:01:20;6.00;99.90
52211;DHT22;38179;52.756;6.906;2023-02-13T06:03:47;6.10;99.90
52211;DHT22;38179;52.756;6.906;2023-02-13T06:06:13;6.10;99.90
52211;DHT22;38179;52.756;6.906;2023-02-13T06:08:40;6.10;99.90
52211;DHT22;38179;52.756;6.906;2023-02-13T06:11:06;6.10;99.90
52211;DHT22;38179;52.756;6.906;2023-02-13T06:13:33;6.10;99.90
52211;DHT22;38179;52.756;6.906;2023-02-13T06:15:59;6.20;99.90
52211;DHT22;38179;52.756;6.906;2023-02-13T06:18:26;6.20;99.90
52211;DHT22;38179;52.756;6.906;2023-02-13T06:20:52;6.10;99.90
52211;DHT22;38179;52.756;6.906;2023-02-13T06:23:18;6.10;99.90
52211;DHT22;38179;52.756;6.906;2023-02-13T06:25:44;6.10;99.90
52211;DHT22;38179;52.756;6.906;2023-02-13T06:28:10;6.10;99.90
52211;DHT22;38179;52.756;6.906;2023-02-13T06:30:36;6.10;99.90
52211;DHT22;38179;52.756;6.906;2023-02-13T06:33:02;6.10;99.90
52211;DHT22;38179;52.756;6.906;2023-02-13T06:35:29;6.10;99.90
52211;DHT22;38179;52.756;6.906;2023-02-13T06:37:55;6.10;99.90
52211;DHT22;38179;52.756;6.906;2023-02-13T06:40:22;6.10;99.90
52211;DHT22;38179;52.756;6.906;2023-02-13T06:42:48;6.10;99.90
52211;DHT22;38179;52.756;6.906;2023-02-13T06:45:17;6.10;99.90
52211;DHT22;38179;52.756;6.906;2023-02-13T06:47:45;6.10;99.90
52211;DHT22;38179;52.756;6.906;2023-02-13T06:50:12;6.10;99.90
52211;DHT22;38179;52.756;6.906;2023-02-13T06:52:38;6.10;99.90
52211;DHT22;38179;52.756;6.906;2023-02-13T06:55:05;6.10;99.90
52211;DHT22;38179;52.756;6.906;2023-02-13T06:57:31;6.10;99.90
52211;DHT22;38179;52.756;6.906;2023-02-13T06:59:59;6.10;99.90
52211;DHT22;38179;52.756;6.906;2023-02-13T07:02:25;6.10;99.90
52211;DHT22;38179;52.756;6.906;2023-02-13T07:04:51;6.10;99.90
52211;DHT22;38179;52.756;6.906;2023-02-13T07:07:17;6.10;99.90
52211;DHT22;38179;52.756;6.906;2023-02-13T07:09:42;6.10;99.90
52211;DHT22;38179;52.756;6.906;2023-02-13T07:12:08;6.10;99.90
52211;DHT22;38179;52.756;6.906;2023-02-13T07:14:34;6.10;99.90
52211;DHT22;38179;52.756;6.906;2023-02-13T07:17:00;6.10;99.90
52211;DHT22;38179;52.756;6.906;2023-02-13T07:19:26;6.10;99.90
52211;DHT22;38179;52.756;6.906;2023-02-13T07:21:52;6.10;99.90
52211;DHT22;38179;52.756;6.906;2023-02-13T07:24:20;6.10;99.90
52211;DHT22;38179;52.756;6.906;2023-02-13T07:26:46;6.10;99.90
52211;DHT22;38179;52.756;6.906;2023-02-13T07:29:12;6.10;99.90
52211;DHT22;38179;52.756;6.906;2023-02-13T07:31:38;6.10;99.90
52211;DHT22;38179;52.756;6.906;2023-02-13T07:34:04;6.10;99.90
52211;DHT22;38179;52.756;6.906;2023-02-13T07:36:30;6.10;99.90
52211;DHT22;38179;52.756;6.906;2023-02-13T07:38:56;6.20;99.90
52211;DHT22;38179;52.756;6.906;2023-02-13T07:41:22;6.20;99.90
52211;DHT22;38179;52.756;6.906;2023-02-13T07:43:52;6.20;99.90
52211;DHT22;38179;52.756;6.906;2023-02-13T07:46:18;6.20;99.90
52211;DHT22;38179;52.756;6.906;2023-02-13T07:48:44;6.20;99.90
52211;DHT22;38179;52.756;6.906;2023-02-13T07:51:10;6.20;99.90
52211;DHT22;38179;52.756;6.906;2023-02-13T07:53:39;6.20;99.90
52211;DHT22;38179;52.756;6.906;2023-02-13T07:56:08;6.20;99.90
52211;DHT22;38179;52.756;6.906;2023-02-13T07:58:36;6.20;99.90
52211;DHT22;38179;52.756;6.906;2023-02-13T08:01:09;6.20;99.90
52211;DHT22;38179;52.756;6.906;2023-02-13T08:03:36;6.20;99.90
52211;DHT22;38179;52.756;6.906;2023-02-13T08:06:03;6.20;99.90
52211;DHT22;38179;52.756;6.906;2023-02-13T08:08:29;6.20;99.90
52211;DHT22;38179;52.756;6.906;2023-02-13T08:10:56;6.20;99.90
52211;DHT22;38179;52.756;6.906;2023-02-13T08:13:41;6.20;99.90
52211;DHT22;38179;52.756;6.906;2023-02-13T08:16:08;6.30;99.90
52211;DHT22;38179;52.756;6.906;2023-02-13T08:18:34;6.20;99.90
52211;DHT22;38179;52.756;6.906;2023-02-13T08:21:03;6.30;99.90
52211;DHT22;38179;52.756;6.906;2023-02-13T08:23:29;6.30;99.90
52211;DHT22;38179;52.756;6.906;2023-02-13T08:25:58;6.30;99.90
52211;DHT22;38179;52.756;6.906;2023-02-13T08:28:25;6.30;99.90
52211;DHT22;38179;52.756;6.906;2023-02-13T08:30:51;6.30;99.90
52211;DHT22;38179;52.756;6.906;2023-02-13T08:33:17;6.30;99.90
52211;DHT22;38179;52.756;6.906;2023-02-13T08:35:43;6.30;99.90
52211;DHT22;38179;52.756;6.906;2023-02-13T08:38:09;6.30;99.90
52211;DHT22;38179;52.756;6.906;2023-02-13T08:40:35;6.40;99.90
52211;DHT22;38179;52.756;6.906;2023-02-13T08:43:02;6.40;99.90
52211;DHT22;38179;52.756;6.906;2023-02-13T08:45:29;6.40;99.90
52211;DHT22;38179;52.756;6.906;2023-02-13T08:47:59;6.40;99.90
52211;DHT22;38179;52.756;6.906;2023-02-13T08:50:25;6.40;99.90
52211;DHT22;38179;52.756;6.906;2023-02-13T08:52:52;6.50;99.90
52211;DHT22;38179;52.756;6.906;2023-02-13T08:55:18;6.50;99.90
52211;DHT22;38179;52.756;6.906;2023-02-13T08:57:45;6.50;99.90
52211;DHT22;38179;52.756;6.906;2023-02-13T09:00:11;6.50;99.90
52211;DHT22;38179;52.756;6.906;2023-02-13T09:02:37;6.50;99.90
52211;DHT22;38179;52.756;6.906;2023-02-13T09:05:03;6.50;99.90
52211;DHT22;38179;52.756;6.906;2023-02-13T09:07:29;6.50;99.90
52211;DHT22;38179;52.756;6.906;2023-02-13T09:09:55;6.50;99.90
52211;DHT22;38179;52.756;6.906;2023-02-13T09:12:21;6.50;99.90
52211;DHT22;38179;52.756;6.906;2023-02-13T09:14:47;6.50;99.90
52211;DHT22;38179;52.756;6.906;2023-02-13T09:17:13;6.50;99.90
52211;DHT22;38179;52.756;6.906;2023-02-13T09:19:43;6.50;99.90
52211;DHT22;38179;52.756;6.906;2023-02-13T09:22:10;6.60;99.90
52211;DHT22;38179;52.756;6.906;2023-02-13T09:24:36;6.60;99.90
52211;DHT22;38179;52.756;6.906;2023-02-13T09:27:03;6.60;99.90
52211;DHT22;38179;52.756;6.906;2023-02-13T09:29:29;6.60;99.90
52211;DHT22;38179;52.756;6.906;2023-02-13T09:31:58;6.60;99.90
52211;DHT22;38179;52.756;6.906;2023-02-13T09:34:24;6.60;99.90
52211;DHT22;38179;52.756;6.906;2023-02-13T09:36:54;6.60;99.90
52211;DHT22;38179;52.756;6.906;2023-02-13T09:39:20;6.70;99.90
52211;DHT22;38179;52.756;6.906;2023-02-13T09:41:48;6.70;99.90
52211;DHT22;38179;52.756;6.906;2023-02-13T09:49:59;6.70;99.90
52211;DHT22;38179;52.756;6.906;2023-02-13T09:52:32;6.70;99.90
52211;DHT22;38179;52.756;6.906;2023-02-13T09:54:58;6.80;99.90
52211;DHT22;38179;52.756;6.906;2023-02-13T09:57:38;6.80;99.90
52211;DHT22;38179;52.756;6.906;2023-02-13T10:00:21;6.80;99.90
52211;DHT22;38179;52.756;6.906;2023-02-13T10:19:36;7.10;99.90
52211;DHT22;38179;52.756;6.906;2023-02-13T10:22:22;7.10;99.90
52211;DHT22;38179;52.756;6.906;2023-02-13T10:24:59;7.20;99.90
52211;DHT22;38179;52.756;6.906;2023-02-13T10:27:34;7.20;99.90
52211;DHT22;38179;52.756;6.906;2023-02-13T10:35:42;7.40;99.90
52211;DHT22;38179;52.756;6.906;2023-02-13T10:38:18;7.50;99.90
52211;DHT22;38179;52.756;6.906;2023-02-13T10:49:29;7.70;99.90
52211;DHT22;38179;52.756;6.906;2023-02-13T11:02:33;7.80;99.90
52211;DHT22;38179;52.756;6.906;2023-02-13T11:05:18;7.80;99.90
52211;DHT22;38179;52.756;6.906;2023-02-13T11:07:46;7.90;99.90
52211;DHT22;38179;52.756;6.906;2023-02-13T11:10:23;7.90;99.90
52211;DHT22;38179;52.756;6.906;2023-02-13T11:12:50;7.90;99.90
52211;DHT22;38179;52.756;6.906;2023-02-13T11:15:28;8.00;99.90
52211;DHT22;38179;52.756;6.906;2023-02-13T11:18:31;8.00;99.90
52211;DHT22;38179;52.756;6.906;2023-02-13T11:21:01;8.00;99.90
52211;DHT22;38179;52.756;6.906;2023-02-13T11:26:10;8.10;99.90
52211;DHT22;38179;52.756;6.906;2023-02-13T13:24:02;9.30;99.90
52211;DHT22;38179;52.756;6.906;2023-02-13T13:29:24;9.40;99.90
52211;DHT22;38179;52.756;6.906;2023-02-13T13:31:56;9.40;99.90
52211;DHT22;38179;52.756;6.906;2023-02-13T13:34:25;9.40;99.90
52211;DHT22;38179;52.756;6.906;2023-02-13T13:48:49;9.50;99.90
52211;DHT22;38179;52.756;6.906;2023-02-13T13:51:19;9.50;99.90
52211;DHT22;38179;52.756;6.906;2023-02-13T13:59:19;9.90;99.90
52211;DHT22;38179;52.756;6.906;2023-02-13T14:01:45;9.90;99.90
52211;DHT22;38179;52.756;6.906;2023-02-13T14:04:37;10.00;99.90
52211;DHT22;38179;52.756;6.906;2023-02-13T14:07:14;10.00;99.90
52211;DHT22;38179;52.756;6.906;2023-02-13T14:09:45;9.80;99.90
52211;DHT22;38179;52.756;6.906;2023-02-13T14:14:52;9.60;99.90
52211;DHT22;38179;52.756;6.906;2023-02-13T14:18:03;9.40;99.90
52211;DHT22;38179;52.756;6.906;2023-02-13T14:22:53;9.40;99.90
52211;DHT22;38179;52.756;6.906;2023-02-13T14:25:28;9.40;99.90
52211;DHT22;38179;52.756;6.906;2023-02-13T14:28:03;9.40;99.90
52211;DHT22;38179;52.756;6.906;2023-02-13T14:30:33;9.30;99.90
52211;DHT22;38179;52.756;6.906;2023-02-13T14:33:03;9.40;99.90
52211;DHT22;38179;52.756;6.906;2023-02-13T14:35:32;9.40;99.90
52211;DHT22;38179;52.756;6.906;2023-02-13T14:38:02;9.50;99.90
52211;DHT22;38179;52.756;6.906;2023-02-13T14:40:48;9.40;99.90
52211;DHT22;38179;52.756;6.906;2023-02-13T14:51:35;9.60;99.90
52211;DHT22;38179;52.756;6.906;2023-02-13T14:54:14;9.60;99.90
52211;DHT22;38179;52.756;6.906;2023-02-13T14:56:44;9.60;99.90
52211;DHT22;38179;52.756;6.906;2023-02-13T14:59:18;9.50;99.90
52211;DHT22;38179;52.756;6.906;2023-02-13T15:01:49;9.60;99.90
52211;DHT22;38179;52.756;6.906;2023-02-13T15:04:26;9.60;99.90
52211;DHT22;38179;52.756;6.906;2023-02-13T15:06:54;9.60;99.90
52211;DHT22;38179;52.756;6.906;2023-02-13T15:11:58;9.60;99.90
52211;DHT22;38179;52.756;6.906;2023-02-13T15:14:31;9.60;99.90
52211;DHT22;38179;52.756;6.906;2023-02-13T15:17:06;9.50;99.90
52211;DHT22;38179;52.756;6.906;2023-02-13T15:19:42;9.50;99.90
52211;DHT22;38179;52.756;6.906;2023-02-13T15:22:18;9.50;99.90
52211;DHT22;38179;52.756;6.906;2023-02-13T15:24:46;9.40;99.90
52211;DHT22;38179;52.756;6.906;2023-02-13T15:27:26;9.30;99.90
52211;DHT22;38179;52.756;6.906;2023-02-13T15:30:02;9.30;99.90
52211;DHT22;38179;52.756;6.906;2023-02-13T15:32:34;9.20;99.90
52211;DHT22;38179;52.756;6.906;2023-02-13T15:35:23;9.20;99.90
52211;DHT22;38179;52.756;6.906;2023-02-13T15:37:49;9.10;99.90
52211;DHT22;38179;52.756;6.906;2023-02-13T15:40:30;9.10;99.90
52211;DHT22;38179;52.756;6.906;2023-02-13T15:42:58;9.00;99.90
52211;DHT22;38179;52.756;6.906;2023-02-13T15:45:26;9.00;99.90
52211;DHT22;38179;52.756;6.906;2023-02-13T15:47:54;8.90;99.90
52211;DHT22;38179;52.756;6.906;2023-02-13T15:50:33;8.80;99.90
52211;DHT22;38179;52.756;6.906;2023-02-13T15:53:02;8.80;99.90
52211;DHT22;38179;52.756;6.906;2023-02-13T15:55:31;8.80;99.90
52211;DHT22;38179;52.756;6.906;2023-02-13T15:57:59;8.70;99.90
52211;DHT22;38179;52.756;6.906;2023-02-13T16:00:32;8.60;99.90
52211;DHT22;38179;52.756;6.906;2023-02-13T16:03:01;8.60;99.90
52211;DHT22;38179;52.756;6.906;2023-02-13T16:05:31;8.60;99.90
52211;DHT22;38179;52.756;6.906;2023-02-13T16:08:02;8.50;99.90
52211;DHT22;38179;52.756;6.906;2023-02-13T16:10:46;8.50;99.90
52211;DHT22;38179;52.756;6.906;2023-02-13T16:13:16;8.40;99.90
52211;DHT22;38179;52.756;6.906;2023-02-13T16:15:43;8.30;99.90
52211;DHT22;38179;52.756;6.906;2023-02-13T16:18:17;8.30;99.90
52211;DHT22;38179;52.756;6.906;2023-02-13T16:20:44;8.20;99.90
52211;DHT22;38179;52.756;6.906;2023-02-13T16:23:16;8.10;99.90
52211;DHT22;38179;52.756;6.906;2023-02-13T16:25:45;8.10;99.90
52211;DHT22;38179;52.756;6.906;2023-02-13T16:28:24;8.00;99.90
52211;DHT22;38179;52.756;6.906;2023-02-13T16:30:59;8.00;99.90
52211;DHT22;38179;52.756;6.906;2023-02-13T16:33:36;7.90;99.90
52211;DHT22;38179;52.756;6.906;2023-02-13T16:38:49;7.80;99.90
52211;DHT22;38179;52.756;6.906;2023-02-13T16:43:45;7.70;99.90
52211;DHT22;38179;52.756;6.906;2023-02-13T16:51:35;7.50;99.90
52211;DHT22;38179;52.756;6.906;2023-02-13T16:54:05;7.40;99.90
52211;DHT22;38179;52.756;6.906;2023-02-13T16:56:42;7.40;99.90
52211;DHT22;38179;52.756;6.906;2023-02-13T17:02:09;7.20;99.90
52211;DHT22;38179;52.756;6.906;2023-02-13T17:04:37;7.20;99.90
52211;DHT22;38179;52.756;6.906;2023-02-13T17:07:26;7.10;99.90
52211;DHT22;38179;52.756;6.906;2023-02-13T17:09:55;7.10;99.90
52211;DHT22;38179;52.756;6.906;2023-02-13T17:12:22;7.00;99.90
52211;DHT22;38179;52.756;6.906;2023-02-13T17:14:48;6.90;99.90
52211;DHT22;38179;52.756;6.906;2023-02-13T17:17:18;6.90;99.90
52211;DHT22;38179;52.756;6.906;2023-02-13T17:19:44;6.80;99.90
52211;DHT22;38179;52.756;6.906;2023-02-13T17:22:30;6.80;99.90
52211;DHT22;38179;52.756;6.906;2023-02-13T17:24:59;6.80;99.90
52211;DHT22;38179;52.756;6.906;2023-02-13T17:27:26;6.80;99.90
52211;DHT22;38179;52.756;6.906;2023-02-13T17:29:52;6.70;99.90
52211;DHT22;38179;52.756;6.906;2023-02-13T17:32:20;6.70;99.90
52211;DHT22;38179;52.756;6.906;2023-02-13T17:34:47;6.60;99.90
52211;DHT22;38179;52.756;6.906;2023-02-13T17:37:25;6.60;99.90
52211;DHT22;38179;52.756;6.906;2023-02-13T17:39:52;6.50;99.90
52211;DHT22;38179;52.756;6.906;2023-02-13T17:42:27;6.50;99.90
52211;DHT22;38179;52.756;6.906;2023-02-13T17:44:56;6.50;99.90
52211;DHT22;38179;52.756;6.906;2023-02-13T17:47:23;6.50;99.90
52211;DHT22;38179;52.756;6.906;2023-02-13T17:49:49;6.40;99.90
52211;DHT22;38179;52.756;6.906;2023-02-13T17:52:26;6.40;99.90
52211;DHT22;38179;52.756;6.906;2023-02-13T17:54:53;6.30;99.90
52211;DHT22;38179;52.756;6.906;2023-02-13T17:57:19;6.20;99.90
52211;DHT22;38179;52.756;6.906;2023-02-13T17:59:45;6.20;99.90
52211;DHT22;38179;52.756;6.906;2023-02-13T18:02:14;6.20;99.90
52211;DHT22;38179;52.756;6.906;2023-02-13T18:04:40;6.20;99.90
52211;DHT22;38179;52.756;6.906;2023-02-13T18:07:06;6.30;99.90
52211;DHT22;38179;52.756;6.906;2023-02-13T18:09:32;6.60;99.90
52211;DHT22;38179;52.756;6.906;2023-02-13T18:11:58;6.80;99.90
52211;DHT22;38179;52.756;6.906;2023-02-13T18:14:24;7.10;99.90
52211;DHT22;38179;52.756;6.906;2023-02-13T18:16:50;7.30;99.90
52211;DHT22;38179;52.756;6.906;2023-02-13T18:19:16;7.20;99.90
52211;DHT22;38179;52.756;6.906;2023-02-13T18:21:42;7.10;99.90
52211;DHT22;38179;52.756;6.906;2023-02-13T18:24:08;7.00;99.90
52211;DHT22;38179;52.756;6.906;2023-02-13T18:26:34;6.90;99.90
52211;DHT22;38179;52.756;6.906;2023-02-13T18:28:59;6.70;99.90
52211;DHT22;38179;52.756;6.906;2023-02-13T18:31:25;6.70;99.90
52211;DHT22;38179;52.756;6.906;2023-02-13T18:33:51;6.60;99.90
52211;DHT22;38179;52.756;6.906;2023-02-13T18:36:17;6.60;99.90
52211;DHT22;38179;52.756;6.906;2023-02-13T18:38:44;6.50;99.90
52211;DHT22;38179;52.756;6.906;2023-02-13T18:41:10;6.50;99.90
52211;DHT22;38179;52.756;6.906;2023-02-13T18:43:36;6.50;99.90
52211;DHT22;38179;52.756;6.906;2023-02-13T18:46:02;6.40;99.90
52211;DHT22;38179;52.756;6.906;2023-02-13T18:48:30;6.40;99.90
52211;DHT22;38179;52.756;6.906;2023-02-13T18:50:58;6.40;99.90
52211;DHT22;38179;52.756;6.906;2023-02-13T18:53:25;6.30;99.90
52211;DHT22;38179;52.756;6.906;2023-02-13T18:56:02;6.30;99.90
52211;DHT22;38179;52.756;6.906;2023-02-13T18:58:28;6.30;99.90
52211;DHT22;38179;52.756;6.906;2023-02-13T19:00:54;6.30;99.90
52211;DHT22;38179;52.756;6.906;2023-02-13T19:03:20;6.20;99.90
52211;DHT22;38179;52.756;6.906;2023-02-13T19:05:46;6.20;99.90
52211;DHT22;38179;52.756;6.906;2023-02-13T19:08:12;6.20;99.90
52211;DHT22;38179;52.756;6.906;2023-02-13T19:10:38;6.10;99.90
52211;DHT22;38179;52.756;6.906;2023-02-13T19:13:04;6.10;99.90
52211;DHT22;38179;52.756;6.906;2023-02-13T19:15:30;6.00;99.90
52211;DHT22;38179;52.756;6.906;2023-02-13T19:17:56;6.00;99.90
52211;DHT22;38179;52.756;6.906;2023-02-13T19:20:22;6.00;99.90
52211;DHT22;38179;52.756;6.906;2023-02-13T19:22:49;5.90;99.90
52211;DHT22;38179;52.756;6.906;2023-02-13T19:25:15;5.90;99.90
52211;DHT22;38179;52.756;6.906;2023-02-13T19:27:41;5.90;99.90
52211;DHT22;38179;52.756;6.906;2023-02-13T19:30:07;5.80;99.90
52211;DHT22;38179;52.756;6.906;2023-02-13T19:32:34;5.80;99.90
52211;DHT22;38179;52.756;6.906;2023-02-13T19:35:00;5.80;99.90
52211;DHT22;38179;52.756;6.906;2023-02-13T19:37:26;5.80;99.90
52211;DHT22;38179;52.756;6.906;2023-02-13T19:39:52;5.70;99.90
52211;DHT22;38179;52.756;6.906;2023-02-13T19:42:18;5.70;99.90
52211;DHT22;38179;52.756;6.906;2023-02-13T19:44:44;5.80;99.90
52211;DHT22;38179;52.756;6.906;2023-02-13T19:47:10;5.70;99.90
52211;DHT22;38179;52.756;6.906;2023-02-13T19:49:36;5.70;99.90
52211;DHT22;38179;52.756;6.906;2023-02-13T19:52:02;5.70;99.90
52211;DHT22;38179;52.756;6.906;2023-02-13T19:54:28;5.70;99.90
52211;DHT22;38179;52.756;6.906;2023-02-13T19:56:54;5.70;99.90
52211;DHT22;38179;52.756;6.906;2023-02-13T19:59:25;5.70;99.90
52211;DHT22;38179;52.756;6.906;2023-02-13T20:01:51;5.60;99.90